地図

経路データ

SID SEASON NUMBER BASIN SUBBASIN NAME ISO_TIME NATURE LAT LON WMO_WIND WMO_PRES WMO_AGENCY TRACK_TYPE DIST2LAND LANDFALL IFLAG USA_AGENCY USA_ATCF_ID USA_LAT USA_LON USA_RECORD USA_STATUS USA_WIND USA_PRES USA_SSHS USA_R34_NE USA_R34_SE USA_R34_SW USA_R34_NW USA_R50_NE USA_R50_SE USA_R50_SW USA_R50_NW USA_R64_NE USA_R64_SE USA_R64_SW USA_R64_NW USA_POCI USA_ROCI USA_RMW USA_EYE TOKYO_LAT TOKYO_LON TOKYO_GRADE TOKYO_WIND TOKYO_PRES TOKYO_R50_DIR TOKYO_R50_LONG TOKYO_R50_SHORT TOKYO_R30_DIR TOKYO_R30_LONG TOKYO_R30_SHORT TOKYO_LAND CMA_LAT CMA_LON CMA_CAT CMA_WIND CMA_PRES HKO_LAT HKO_LON HKO_CAT HKO_WIND HKO_PRES NEWDELHI_LAT NEWDELHI_LON NEWDELHI_GRADE NEWDELHI_WIND NEWDELHI_PRES NEWDELHI_CI NEWDELHI_DP NEWDELHI_POCI REUNION_LAT REUNION_LON REUNION_TYPE REUNION_WIND REUNION_PRES REUNION_TNUM REUNION_CI REUNION_RMW REUNION_R34_NE REUNION_R34_SE REUNION_R34_SW REUNION_R34_NW REUNION_R50_NE REUNION_R50_SE REUNION_R50_SW REUNION_R50_NW REUNION_R64_NE REUNION_R64_SE REUNION_R64_SW REUNION_R64_NW BOM_LAT BOM_LON BOM_TYPE BOM_WIND BOM_PRES BOM_TNUM BOM_CI BOM_RMW BOM_R34_NE BOM_R34_SE BOM_R34_SW BOM_R34_NW BOM_R50_NE BOM_R50_SE BOM_R50_SW BOM_R50_NW BOM_R64_NE BOM_R64_SE BOM_R64_SW BOM_R64_NW BOM_ROCI BOM_POCI BOM_EYE BOM_POS_METHOD BOM_PRES_METHOD NADI_LAT NADI_LON NADI_CAT NADI_WIND NADI_PRES WELLINGTON_LAT WELLINGTON_LON WELLINGTON_WIND WELLINGTON_PRES DS824_LAT DS824_LON DS824_STAGE DS824_WIND DS824_PRES TD9636_LAT TD9636_LON TD9636_STAGE TD9636_WIND TD9636_PRES TD9635_LAT TD9635_LON TD9635_WIND TD9635_PRES TD9635_ROCI NEUMANN_LAT NEUMANN_LON NEUMANN_CLASS NEUMANN_WIND NEUMANN_PRES MLC_LAT MLC_LON MLC_CLASS MLC_WIND MLC_PRES USA_GUST BOM_GUST BOM_GUST_PER REUNION_GUST REUNION_GUST_PER USA_SEAHGT USA_SEARAD_NE USA_SEARAD_SE USA_SEARAD_SW USA_SEARAD_NW STORM_SPEED STORM_DIR
1975125N13096 1975 39 NI BB NOT_NAMED 1975-05-04 12:00:00 TS 12.5000 96.0000 main 258 249 O________OO___ jtwc_io IO031975 12.5000 96.0000 -1 12.5000 96.0000 TC 12.5000 96.0000 1 2 68
1975125N13096 1975 39 NI BB NOT_NAMED 1975-05-04 15:00:00 TS 12.5410 96.1096 main 249 234 P________PP___ IO031975 12.5350 96.1325 -1 12.5350 96.1325 TC 12.5531 96.0638 1 2 56
1975125N13096 1975 39 NI BB NOT_NAMED 1975-05-04 18:00:00 TS 12.6083 96.1674 main 234 229 O________OP___ jtwc_io IO031975 12.6000 96.2000 -1 12.6000 96.2000 TC 12.6249 96.1021 1 2 8
1975125N13096 1975 39 NI BB NOT_NAMED 1975-05-04 21:00:00 TS 12.7247 96.1314 main 238 234 P________PP___ IO031975 12.7200 96.1525 -1 12.7200 96.1525 TC 12.7343 96.0894 1 3 331
1975125N13096 1975 39 NI BB NOT_NAMED 1975-05-05 00:00:00 TS 12.9000 96.0000 main 240 240 O________OO___ jtwc_io IO031975 12.9000 96.0000 -1 12.9000 96.0000 TC 12.9000 96.0000 1 5 320
1975125N13096 1975 39 NI BB NOT_NAMED 1975-05-05 03:00:00 TS 13.1293 95.7877 main 255 252 P________PP___ IO031975 13.1275 95.7725 -1 13.1275 95.7725 TC 13.1330 95.8182 1 7 317
1975125N13096 1975 39 NI BB NOT_NAMED 1975-05-05 06:00:00 TS 13.4042 95.5227 main 257 223 O________OP___ jtwc_io IO031975 13.4000 95.5000 -1 13.4000 95.5000 TC 13.4127 95.5680 1 8 318
1975125N13096 1975 39 NI BB NOT_NAMED 1975-05-05 09:00:00 TS 13.7037 95.2613 main 223 190 P________PP___ IO031975 13.7000 95.2500 -1 13.7000 95.2500 TC 13.7111 95.2838 1 8 320
1975125N13096 1975 39 NI BB NOT_NAMED 1975-05-05 12:00:00 TS 14.0000 95.0000 main 190 168 O________OO___ jtwc_io IO031975 14.0000 95.0000 -1 14.0000 95.0000 TC 14.0000 95.0000 2 7 319
1975125N13096 1975 39 NI BB NOT_NAMED 1975-05-05 15:00:00 TS 14.2591 94.7589 main 158 141 P________PP___ IO031975 14.2650 94.7425 -1 14.2650 94.7425 TC 14.2472 94.7919 2 7 317
1975125N13096 1975 39 NI BB NOT_NAMED 1975-05-05 18:00:00 TS 14.4932 94.5290 main 144 123 O________OP___ jtwc_io IO031975 14.5000 94.5000 XX 35 -5 14.5000 94.5000 TC 35 14.4795 94.5870 2 6 317
1975125N13096 1975 39 NI BB NOT_NAMED 1975-05-05 21:00:00 TS 14.7039 94.3361 main 123 103 P________PP___ IO031975 14.7074 94.3223 XX 37 -5 14.7074 94.3223 TC 37 14.6971 94.3637 2 6 314
1975125N13096 1975 39 NI BB NOT_NAMED 1975-05-06 00:00:00 TS 14.9000 94.1000 main 105 99 O________OO___ jtwc_io IO031975 14.9000 94.1000 XX 40 -5 14.9000 94.1000 TC 40 14.9000 94.1000 2 7 304
1975125N13096 1975 39 NI BB NOT_NAMED 1975-05-06 03:00:00 TS 15.1072 93.7068 main 108 108 P________PP___ IO031975 15.1076 93.7226 XX 45 -5 15.1076 93.7226 TC 45 15.1063 93.6752 2 9 297
1975125N13096 1975 39 NI BB NOT_NAMED 1975-05-06 06:00:00 TS 15.2986 93.2744 main 124 124 O________OP___ jtwc_io IO031975 15.3000 93.3000 XX 50 -5 15.3000 93.3000 TC 50 15.2959 93.2232 2 9 294
1975125N13096 1975 39 NI BB NOT_NAMED 1975-05-06 09:00:00 TS 15.4642 92.8566 main 150 150 P________PP___ IO031975 15.4651 92.8676 XX 57 -5 15.4651 92.8676 TC 57 15.4624 92.8346 2 7 295
1975125N13096 1975 39 NI BB NOT_NAMED 1975-05-06 12:00:00 TS 15.6000 92.6000 main 177 174 O________OO___ jtwc_io IO031975 15.6000 92.6000 XX 65 -5 15.6000 92.6000 TC 65 15.6000 92.6000 4 3 322
1975125N13096 1975 39 NI BB NOT_NAMED 1975-05-06 15:00:00 TS 15.7071 92.6581 main 163 140 P________PP___ IO031975 15.7149 92.6599 XX 70 -5 15.7149 92.6599 TC 70 15.6915 92.6546 4 3 56
1975125N13096 1975 39 NI BB NOT_NAMED 1975-05-06 18:00:00 TS 15.7859 92.8882 main 140 119 O________OP___ jtwc_io IO031975 15.8000 92.9000 XX 75 -5 15.8000 92.9000 TC 75 15.7576 92.8645 4 5 74
1975125N13096 1975 39 NI BB NOT_NAMED 1975-05-06 21:00:00 TS 15.8400 93.1574 main 109 86 P________PP___ IO031975 15.8501 93.1650 XX 75 -5 15.8501 93.1650 TC 75 15.8199 93.1422 4 5 77
1975125N13096 1975 39 NI BB NOT_NAMED 1975-05-07 00:00:00 TS 15.9000 93.4000 main 86 74 O________OO___ jtwc_io IO031975 15.9000 93.4000 XX 75 -5 15.9000 93.4000 TC 75 15.9000 93.4000 4 3 64
1975125N13096 1975 39 NI BB NOT_NAMED 1975-05-07 03:00:00 TS 15.9875 93.4666 main 74 74 P________PP___ IO031975 15.9774 93.4726 XX 72 -5 15.9774 93.4726 TC 72 16.0077 93.4547 4 2 23
1975125N13096 1975 39 NI BB NOT_NAMED 1975-05-07 06:00:00 TS 16.1131 93.4945 main 75 75 O________OP___ jtwc_io IO031975 16.1000 93.5000 XX 70 -5 16.1000 93.5000 TC 70 16.1393 93.4835 4 3 15
1975125N13096 1975 39 NI BB NOT_NAMED 1975-05-07 09:00:00 TS 16.2854 93.5519 main 72 63 P________PP___ IO031975 16.2774 93.5551 XX 67 -5 16.2774 93.5551 TC 67 16.3013 93.5455 4 4 27
1975125N13096 1975 39 NI BB NOT_NAMED 1975-05-07 12:00:00 TS 16.5000 93.7000 main 63 39 O________OO___ jtwc_io IO031975 16.5000 93.7000 XX 65 -5 16.5000 93.7000 TC 65 16.5000 93.7000 4 6 43
1975125N13096 1975 39 NI BB NOT_NAMED 1975-05-07 15:00:00 TS 16.7321 93.9868 main 39 10 P________PP___ IO031975 16.7349 93.9901 XX 52 -5 16.7349 93.9901 TC 52 16.7265 93.9801 4 8 53
1975125N13096 1975 39 NI BB NOT_NAMED 1975-05-07 18:00:00 TS 16.9964 94.3878 main 10 0 O________OP___ jtwc_io IO031975 17.0000 94.4000 XX 40 -5 17.0000 94.4000 TC 40 16.9893 94.3634 4 10 56
1975125N13096 1975 39 NI BB NOT_NAMED 1975-05-07 21:00:00 TS 17.2840 94.8501 main 0 0 P________PP___ IO031975 17.2848 94.8552 XX 32 -5 17.2848 94.8552 TC 32 17.2824 94.8399 4 11 58
1975125N13096 1975 39 NI BB NOT_NAMED 1975-05-08 00:00:00 TS 17.6000 95.4000 main 0 0 O________OO___ jtwc_io IO031975 17.6000 95.4000 XX 25 -5 17.6000 95.4000 TC 25 17.6000 95.4000 2 13 60
1975125N13096 1975 39 NI BB NOT_NAMED 1975-05-08 03:00:00 TS 17.9403 96.0194 main 0 0 P________PP___ IO031975 17.9423 96.0127 XX 22 -5 17.9423 96.0127 TC 22 17.9361 96.0327 2 14 61
1975125N13096 1975 39 NI BB NOT_NAMED 1975-05-08 06:00:00 TS 18.2951 96.7074 main 0 0 O________OP___ jtwc_io IO031975 18.3000 96.7000 XX 20 -5 18.3000 96.7000 TC 20 18.2852 96.7221 2 15 62
1975125N13096 1975 39 NI BB NOT_NAMED 1975-05-08 09:00:00 TS 18.6493 97.4414 main 0 0 P________PP___ IO031975 18.6531 97.4369 XX -5 18.6531 97.4369 TC 18.6416 97.4505 2 16 64
1975125N13096 1975 39 NI BB NOT_NAMED 1975-05-08 12:00:00 TS 19.0000 98.2000 main 0 O________OO___ jtwc_io IO031975 19.0000 98.2000 -1 19.0000 98.2000 TC 19.0000 98.2000 1 16 64

IBTrACS Databaseについて

本データベースは、米国NOAAが公開する1842年以降の世界の熱帯低気圧のベストトラックデータアーカイブInternational Best Track Archive for Climate Stewardship (IBTrACS)を、ウェブで閲覧しやすい形式に変換したものです。

最終更新日:2021-12-06